Time;durP1;ratioP1;P1;durP2;ratioP2;P2;SDS_P1;SDS_P2;PMS_P1;PMS_P2;Temp;Humidity;BMP_temperature;BMP_pressure;BME280_temperature;BME280_humidity;BME280_pressure;Samples;Min_cycle;Max_cycle;Signal;HPM_P1;HPM_P2
2022/06/26 00:01:11;;;;;;;;;;;17.90;99.90;;;;;;5002779;28;20287;-66
2022/06/26 00:03:38;;;;;;;;;;;17.80;99.90;;;;;;4982184;28;20349;-65
2022/06/26 00:06:04;;;;;;;;;;;17.80;99.90;;;;;;4986131;28;20401;-65
2022/06/26 00:08:31;;;;;;;;;;;17.70;99.90;;;;;;5000587;28;20389;-64
2022/06/26 00:10:58;;;;;;;;;;;17.70;99.90;;;;;;4990915;28;19980;-65
2022/06/26 00:13:24;;;;;;;;;;;17.70;99.90;;;;;;4997681;28;19926;-65
2022/06/26 00:15:53;;;;;;;;;;;17.70;99.90;;;;;;4996273;28;19925;-65
2022/06/26 00:18:19;;;;;;;;;;;17.70;99.90;;;;;;4984957;28;19996;-64
2022/06/26 00:20:46;;;;;;;;;;;17.60;99.90;;;;;;4983985;28;19980;-65
2022/06/26 00:23:13;;;;;;;;;;;17.50;99.90;;;;;;4987056;28;19948;-66
2022/06/26 00:25:40;;;;;;;;;;;17.40;99.90;;;;;;4980274;28;19930;-65
2022/06/26 00:28:07;;;;;;;;;;;17.20;99.90;;;;;;4996953;28;19926;-65
2022/06/26 00:30:33;;;;;;;;;;;17.20;99.90;;;;;;5007700;28;19934;-65
2022/06/26 00:33:02;;;;;;;;;;;17.20;99.90;;;;;;4985743;28;19961;-65
2022/06/26 00:35:29;;;;;;;;;;;17.20;99.90;;;;;;4977755;28;19930;-65
2022/06/26 00:37:56;;;;;;;;;;;17.20;99.90;;;;;;4984079;28;19953;-65
2022/06/26 00:40:22;;;;;;;;;;;17.30;99.90;;;;;;4984610;28;20310;-65
2022/06/26 00:42:49;;;;;;;;;;;17.20;99.90;;;;;;5000565;28;19929;-65
2022/06/26 00:45:16;;;;;;;;;;;17.30;99.90;;;;;;5008632;28;20401;-65
2022/06/26 00:47:43;;;;;;;;;;;17.30;99.90;;;;;;5005726;28;19965;-65
2022/06/26 00:50:11;;;;;;;;;;;17.30;99.90;;;;;;5008348;28;19927;-65
2022/06/26 00:52:38;;;;;;;;;;;17.20;99.90;;;;;;4977826;28;20386;-66
2022/06/26 00:55:05;;;;;;;;;;;17.20;99.90;;;;;;4989450;28;19926;-66
2022/06/26 00:57:33;;;;;;;;;;;17.20;99.90;;;;;;4992267;28;19969;-65
2022/06/26 01:00:00;;;;;;;;;;;17.30;99.90;;;;;;4988477;28;19930;-65
2022/06/26 01:02:27;;;;;;;;;;;17.30;99.90;;;;;;4982615;28;19933;-65
2022/06/26 01:04:53;;;;;;;;;;;17.30;99.90;;;;;;4985564;28;20008;-65
2022/06/26 01:07:22;;;;;;;;;;;17.30;99.90;;;;;;5000506;28;19929;-65
2022/06/26 01:09:48;;;;;;;;;;;17.30;99.90;;;;;;4984954;28;19925;-64
2022/06/26 01:12:16;;;;;;;;;;;17.30;99.90;;;;;;4997904;28;20404;-65
2022/06/26 01:14:43;;;;;;;;;;;17.30;99.90;;;;;;4999796;28;20393;-65
2022/06/26 01:17:10;;;;;;;;;;;17.30;99.90;;;;;;5011273;28;19942;-65
2022/06/26 01:19:37;;;;;;;;;;;17.40;99.90;;;;;;4995757;28;19926;-65
2022/06/26 01:22:04;;;;;;;;;;;17.50;99.90;;;;;;5009621;28;19930;-64
2022/06/26 01:24:32;;;;;;;;;;;17.50;99.90;;;;;;4994203;28;19977;-63
2022/06/26 01:27:00;;;;;;;;;;;17.40;99.90;;;;;;4984483;28;19929;-65
2022/06/26 01:29:27;;;;;;;;;;;17.40;99.90;;;;;;4996422;28;20345;-66
2022/06/26 01:31:54;;;;;;;;;;;17.40;99.90;;;;;;4994719;28;20025;-65
2022/06/26 01:34:21;;;;;;;;;;;17.40;99.90;;;;;;4976785;28;20021;-65
2022/06/26 01:36:52;;;;;;;;;;;17.20;99.90;;;;;;4980816;28;19926;-65
2022/06/26 01:39:19;;;;;;;;;;;17.30;99.90;;;;;;4984132;28;19930;-65
2022/06/26 01:41:49;;;;;;;;;;;17.30;99.90;;;;;;4985004;28;19930;-65
2022/06/26 01:44:16;;;;;;;;;;;17.20;99.90;;;;;;4984183;28;19925;-65
2022/06/26 01:46:43;;;;;;;;;;;17.10;99.90;;;;;;5000377;28;19934;-66
2022/06/26 01:49:10;;;;;;;;;;;17.10;99.90;;;;;;4991831;28;19926;-65
2022/06/26 01:51:38;;;;;;;;;;;17.20;99.90;;;;;;4987125;28;19925;-65
2022/06/26 01:54:07;;;;;;;;;;;17.30;99.90;;;;;;4996033;28;20196;-65
2022/06/26 01:56:35;;;;;;;;;;;17.30;99.90;;;;;;4996555;28;19953;-65
2022/06/26 01:59:03;;;;;;;;;;;17.40;99.90;;;;;;4979562;28;20013;-65
2022/06/26 02:01:34;;;;;;;;;;;17.40;99.90;;;;;;5003867;28;19926;-65
2022/06/26 02:04:02;;;;;;;;;;;17.40;99.90;;;;;;4979445;28;19926;-65
2022/06/26 02:06:30;;;;;;;;;;;17.30;99.90;;;;;;5004518;28;19932;-66
2022/06/26 02:08:57;;;;;;;;;;;17.20;99.90;;;;;;5004107;28;20429;-65
2022/06/26 02:14:11;;;;;;;;;;;17.20;99.90;;;;;;5003963;28;19922;-65
2022/06/26 02:16:44;;;;;;;;;;;17.20;99.90;;;;;;5000819;28;19926;-65
2022/06/26 02:19:12;;;;;;;;;;;17.30;99.90;;;;;;4994983;28;19932;-64
2022/06/26 02:21:39;;;;;;;;;;;17.30;99.90;;;;;;4989421;28;19948;-65
2022/06/26 02:24:06;;;;;;;;;;;17.30;99.90;;;;;;4989833;28;19937;-64
2022/06/26 02:26:33;;;;;;;;;;;17.30;99.90;;;;;;4988209;28;19934;-64
2022/06/26 02:29:00;;;;;;;;;;;17.30;99.90;;;;;;4977430;28;19926;-65
2022/06/26 02:31:31;;;;;;;;;;;17.30;99.90;;;;;;4988642;28;20130;-65
2022/06/26 02:33:58;;;;;;;;;;;17.30;99.90;;;;;;4976718;28;20102;-64
2022/06/26 02:36:24;;;;;;;;;;;17.20;99.90;;;;;;4987151;28;19926;-64
2022/06/26 02:38:51;;;;;;;;;;;17.20;99.90;;;;;;4975728;28;19934;-63
2022/06/26 02:41:18;;;;;;;;;;;17.10;99.90;;;;;;4982100;28;19933;-65
2022/06/26 02:43:47;;;;;;;;;;;17.10;99.90;;;;;;5003647;28;19944;-65
2022/06/26 02:46:14;;;;;;;;;;;17.10;99.90;;;;;;4994648;28;19926;-65
2022/06/26 02:48:44;;;;;;;;;;;17.10;99.90;;;;;;4980239;28;20090;-65
2022/06/26 02:51:11;;;;;;;;;;;17.10;99.90;;;;;;4980787;28;19929;-64
2022/06/26 02:53:39;;;;;;;;;;;17.10;99.90;;;;;;5005395;28;19926;-65
2022/06/26 02:56:06;;;;;;;;;;;17.10;99.90;;;;;;4994071;28;19930;-64
2022/06/26 02:58:34;;;;;;;;;;;17.10;99.90;;;;;;4992545;28;19981;-65
2022/06/26 03:01:03;;;;;;;;;;;17.00;99.90;;;;;;5003013;28;19925;-65
2022/06/26 03:03:30;;;;;;;;;;;17.00;99.90;;;;;;5008104;28;19929;-64
2022/06/26 03:05:58;;;;;;;;;;;16.90;99.90;;;;;;4994392;28;19942;-64
2022/06/26 03:08:26;;;;;;;;;;;16.80;99.90;;;;;;4982044;28;20315;-64
2022/06/26 03:10:53;;;;;;;;;;;16.70;99.90;;;;;;4980354;28;20432;-64
2022/06/26 03:13:20;;;;;;;;;;;16.70;99.90;;;;;;4987561;28;19941;-65
2022/06/26 03:15:47;;;;;;;;;;;16.80;99.90;;;;;;4981785;28;19930;-64
2022/06/26 03:18:16;;;;;;;;;;;16.90;99.90;;;;;;4987430;28;19969;-65
2022/06/26 03:20:44;;;;;;;;;;;16.90;99.90;;;;;;5002061;28;19926;-65
2022/06/26 03:23:13;;;;;;;;;;;16.90;99.90;;;;;;4987425;28;19925;-65
2022/06/26 03:25:40;;;;;;;;;;;16.80;99.90;;;;;;5007318;28;19925;-65
2022/06/26 03:28:07;;;;;;;;;;;16.80;99.90;;;;;;4998950;28;19930;-65
2022/06/26 03:30:40;;;;;;;;;;;16.90;99.90;;;;;;4989382;28;20394;-65
2022/06/26 03:33:07;;;;;;;;;;;16.90;99.90;;;;;;4981192;28;19937;-64
2022/06/26 03:35:36;;;;;;;;;;;16.90;99.90;;;;;;4982242;28;20341;-64
2022/06/26 03:38:03;;;;;;;;;;;16.90;99.90;;;;;;4981397;28;19926;-65
2022/06/26 03:40:32;;;;;;;;;;;17.00;99.90;;;;;;4998273;28;19933;-65
2022/06/26 03:43:00;;;;;;;;;;;16.90;99.90;;;;;;4986239;28;19926;-65
2022/06/26 03:45:29;;;;;;;;;;;17.00;99.90;;;;;;5007259;28;20090;-64
2022/06/26 03:47:56;;;;;;;;;;;17.00;99.90;;;;;;5000244;28;20282;-65
2022/06/26 03:50:22;;;;;;;;;;;16.90;99.90;;;;;;4983208;28;20300;-64
2022/06/26 03:52:49;;;;;;;;;;;16.80;99.90;;;;;;4983162;28;20398;-65
2022/06/26 03:55:16;;;;;;;;;;;16.80;99.90;;;;;;4995015;28;19925;-66
2022/06/26 03:57:45;;;;;;;;;;;16.70;99.90;;;;;;5001152;28;19925;-65
2022/06/26 04:00:12;;;;;;;;;;;16.70;99.90;;;;;;4988995;28;19925;-66
2022/06/26 04:02:45;;;;;;;;;;;16.70;99.90;;;;;;4984311;28;19978;-66
2022/06/26 04:05:17;;;;;;;;;;;16.70;99.90;;;;;;4994946;28;20324;-64
2022/06/26 04:07:45;;;;;;;;;;;16.70;99.90;;;;;;4982935;28;19926;-64
2022/06/26 04:10:18;;;;;;;;;;;16.60;99.90;;;;;;4985777;28;20033;-64
2022/06/26 04:12:46;;;;;;;;;;;16.60;99.90;;;;;;4990236;28;19930;-64
2022/06/26 04:15:13;;;;;;;;;;;16.50;99.90;;;;;;4982708;28;19926;-64
2022/06/26 04:17:40;;;;;;;;;;;16.60;99.90;;;;;;4986400;28;19925;-65
2022/06/26 04:20:12;;;;;;;;;;;16.60;99.90;;;;;;4997366;28;19976;-64
2022/06/26 04:22:39;;;;;;;;;;;16.60;99.90;;;;;;5014212;28;20021;-64
2022/06/26 04:25:10;;;;;;;;;;;16.60;99.90;;;;;;4990283;28;19933;-65
2022/06/26 04:27:37;;;;;;;;;;;16.60;99.90;;;;;;4999010;28;19926;-64
2022/06/26 04:30:06;;;;;;;;;;;16.60;99.90;;;;;;4997091;28;20370;-64
2022/06/26 04:32:33;;;;;;;;;;;16.60;99.90;;;;;;4979495;28;19949;-65
2022/06/26 04:35:00;;;;;;;;;;;16.70;99.90;;;;;;5004845;28;19926;-65
2022/06/26 04:37:27;;;;;;;;;;;16.60;99.90;;;;;;4990355;28;19972;-65
2022/06/26 04:39:53;;;;;;;;;;;16.70;99.90;;;;;;4980081;28;19926;-64
2022/06/26 04:42:20;;;;;;;;;;;16.70;99.90;;;;;;4988791;28;19925;-65
2022/06/26 04:44:47;;;;;;;;;;;16.80;99.90;;;;;;5001484;28;20048;-65
2022/06/26 04:47:15;;;;;;;;;;;16.80;99.90;;;;;;4991098;28;20295;-65
2022/06/26 04:49:58;;;;;;;;;;;16.80;99.90;;;;;;4984124;28;19937;-65
2022/06/26 04:52:24;;;;;;;;;;;16.80;99.90;;;;;;4992642;28;19929;-64
2022/06/26 04:54:54;;;;;;;;;;;16.90;99.90;;;;;;5000715;28;19926;-64
2022/06/26 04:57:25;;;;;;;;;;;16.90;99.90;;;;;;5006894;28;19926;-65
2022/06/26 04:59:53;;;;;;;;;;;17.10;99.90;;;;;;5001088;28;19926;-65
2022/06/26 05:02:21;;;;;;;;;;;17.20;99.90;;;;;;5003243;28;19954;-65
2022/06/26 05:05:02;;;;;;;;;;;17.30;99.90;;;;;;4996759;28;19926;-65
2022/06/26 05:07:38;;;;;;;;;;;17.40;99.90;;;;;;5008245;28;19930;-64
2022/06/26 05:10:05;;;;;;;;;;;17.50;99.90;;;;;;4994457;28;19933;-65
2022/06/26 05:12:43;;;;;;;;;;;17.50;99.90;;;;;;5005763;28;20409;-66
2022/06/26 05:15:17;;;;;;;;;;;17.40;99.90;;;;;;5004428;28;20046;-65
2022/06/26 05:17:47;;;;;;;;;;;17.30;99.90;;;;;;5007701;28;19929;-64
2022/06/26 05:20:17;;;;;;;;;;;17.40;99.90;;;;;;5006747;28;20031;-64
2022/06/26 05:22:44;;;;;;;;;;;17.40;99.90;;;;;;4980598;28;19933;-64
2022/06/26 05:25:12;;;;;;;;;;;17.30;99.90;;;;;;4986662;28;19926;-65
2022/06/26 05:27:39;;;;;;;;;;;17.30;99.90;;;;;;5006309;28;19933;-64
2022/06/26 05:30:06;;;;;;;;;;;17.20;99.90;;;;;;5005185;28;19926;-65
2022/06/26 05:32:39;;;;;;;;;;;17.10;99.90;;;;;;4987820;28;19932;-65
2022/06/26 05:35:14;;;;;;;;;;;17.00;99.90;;;;;;4983994;28;20020;-64
2022/06/26 05:37:41;;;;;;;;;;;17.00;99.90;;;;;;4982279;28;20302;-65
2022/06/26 05:40:08;;;;;;;;;;;17.10;99.90;;;;;;4980227;28;20369;-64
2022/06/26 05:42:39;;;;;;;;;;;17.20;99.90;;;;;;4986429;28;19926;-65
2022/06/26 05:45:06;;;;;;;;;;;17.30;99.90;;;;;;4979715;28;20337;-65
2022/06/26 05:47:33;;;;;;;;;;;17.50;99.90;;;;;;4977226;28;19937;-65
2022/06/26 05:50:26;;;;;;;;;;;17.50;99.90;;;;;;4993854;28;20413;-65
2022/06/26 05:52:58;;;;;;;;;;;17.40;99.90;;;;;;4983537;28;19930;-64
2022/06/26 05:55:40;;;;;;;;;;;17.40;99.90;;;;;;4982036;28;19933;-65
2022/06/26 05:58:26;;;;;;;;;;;17.50;99.90;;;;;;4992235;28;19932;-65
2022/06/26 06:01:09;;;;;;;;;;;17.60;99.90;;;;;;5005030;28;19932;-64
2022/06/26 06:03:36;;;;;;;;;;;17.60;99.90;;;;;;4990687;28;19937;-65
2022/06/26 06:06:04;;;;;;;;;;;17.50;99.90;;;;;;4985751;28;19989;-64
2022/06/26 06:08:31;;;;;;;;;;;17.70;99.90;;;;;;4991333;28;19934;-64
2022/06/26 06:10:59;;;;;;;;;;;17.80;99.90;;;;;;4981056;28;19926;-64
2022/06/26 06:13:26;;;;;;;;;;;18.00;99.90;;;;;;4984114;28;19968;-65
2022/06/26 06:15:52;;;;;;;;;;;18.10;99.90;;;;;;4997523;28;19936;-64
2022/06/26 06:18:20;;;;;;;;;;;18.10;99.90;;;;;;4992934;28;19932;-65
2022/06/26 06:20:47;;;;;;;;;;;18.10;99.90;;;;;;4983762;28;19926;-64
2022/06/26 06:23:15;;;;;;;;;;;18.00;99.90;;;;;;4986887;28;19926;-66
2022/06/26 06:25:43;;;;;;;;;;;18.20;99.90;;;;;;4978936;28;20373;-65
2022/06/26 06:28:10;;;;;;;;;;;18.50;99.90;;;;;;4986393;28;19926;-66
2022/06/26 06:30:40;;;;;;;;;;;18.50;99.90;;;;;;5004855;28;20296;-65
2022/06/26 06:33:08;;;;;;;;;;;18.60;99.90;;;;;;5000904;28;19973;-66
2022/06/26 06:35:39;;;;;;;;;;;18.60;99.90;;;;;;4992940;28;19930;-71
2022/06/26 06:38:06;;;;;;;;;;;18.50;99.90;;;;;;4995709;28;20436;-69
2022/06/26 06:40:35;;;;;;;;;;;18.40;99.90;;;;;;5006943;28;19972;-70
2022/06/26 06:43:03;;;;;;;;;;;18.70;99.90;;;;;;4997484;28;20313;-64
2022/06/26 06:45:49;;;;;;;;;;;18.70;99.90;;;;;;4985010;28;20013;-65
2022/06/26 06:48:16;;;;;;;;;;;18.80;99.90;;;;;;4978314;28;19930;-64
2022/06/26 06:51:06;;;;;;;;;;;18.40;99.90;;;;;;4980347;28;19933;-65
2022/06/26 06:53:33;;;;;;;;;;;18.40;99.90;;;;;;4997971;28;19933;-72
2022/06/26 06:56:03;;;;;;;;;;;18.60;99.90;;;;;;4989441;28;19926;-66
2022/06/26 06:58:29;;;;;;;;;;;18.90;99.90;;;;;;4995363;28;19938;-66
2022/06/26 07:00:56;;;;;;;;;;;19.30;99.90;;;;;;4994587;28;19933;-65
2022/06/26 07:03:23;;;;;;;;;;;19.50;99.90;;;;;;5011120;28;20630;-66
2022/06/26 07:05:50;;;;;;;;;;;19.70;99.90;;;;;;5006312;28;19932;-66
2022/06/26 07:08:16;;;;;;;;;;;19.70;99.90;;;;;;5010867;28;19925;-64
2022/06/26 07:10:43;;;;;;;;;;;19.80;99.90;;;;;;5004476;28;19930;-64
2022/06/26 07:13:12;;;;;;;;;;;19.80;99.90;;;;;;5010113;28;19929;-66
2022/06/26 07:15:39;;;;;;;;;;;19.70;99.90;;;;;;5008517;28;19934;-65
2022/06/26 07:18:06;;;;;;;;;;;19.70;99.90;;;;;;5012793;28;19953;-65
2022/06/26 07:20:33;;;;;;;;;;;19.50;99.90;;;;;;4998357;28;20025;-66
2022/06/26 07:23:00;;;;;;;;;;;19.50;99.90;;;;;;5004556;28;19927;-66
2022/06/26 07:25:40;;;;;;;;;;;19.50;99.90;;;;;;4993095;28;19926;-65
2022/06/26 07:28:08;;;;;;;;;;;19.70;99.90;;;;;;5005655;28;19934;-67
2022/06/26 07:30:38;;;;;;;;;;;19.90;99.90;;;;;;5004638;28;19926;-66
2022/06/26 07:33:05;;;;;;;;;;;20.00;99.90;;;;;;4985677;28;20387;-66
2022/06/26 07:35:32;;;;;;;;;;;19.60;99.90;;;;;;5012456;28;19926;-65
2022/06/26 07:38:03;;;;;;;;;;;19.80;99.90;;;;;;5002403;28;19930;-66
2022/06/26 07:40:30;;;;;;;;;;;19.90;99.90;;;;;;4992271;28;19929;-66
2022/06/26 07:43:01;;;;;;;;;;;20.10;99.90;;;;;;5008499;28;19926;-65
2022/06/26 07:45:34;;;;;;;;;;;20.20;99.90;;;;;;5007899;28;20448;-66
2022/06/26 07:48:06;;;;;;;;;;;20.40;99.90;;;;;;4993260;28;20404;-66
2022/06/26 07:50:36;;;;;;;;;;;20.20;99.90;;;;;;5011049;28;20381;-66
2022/06/26 07:53:03;;;;;;;;;;;19.80;99.90;;;;;;5002605;28;19929;-66
2022/06/26 07:55:30;;;;;;;;;;;19.60;99.90;;;;;;4986511;28;19930;-66
2022/06/26 07:57:56;;;;;;;;;;;19.70;99.90;;;;;;4987913;28;19925;-66
2022/06/26 08:00:23;;;;;;;;;;;19.70;99.90;;;;;;4981429;28;19973;-66
2022/06/26 08:02:50;;;;;;;;;;;19.70;99.90;;;;;;4988906;28;19936;-66
2022/06/26 08:05:18;;;;;;;;;;;19.60;99.90;;;;;;4979274;28;19989;-68
2022/06/26 08:07:45;;;;;;;;;;;19.50;99.90;;;;;;4987320;28;19980;-70
2022/06/26 08:10:12;;;;;;;;;;;19.60;99.90;;;;;;4985031;28;20329;-70
2022/06/26 08:12:39;;;;;;;;;;;19.70;99.90;;;;;;5007845;28;19929;-69
2022/06/26 08:15:07;;;;;;;;;;;19.90;99.90;;;;;;4988003;28;20010;-66
2022/06/26 08:17:33;;;;;;;;;;;19.90;99.90;;;;;;5004004;28;20043;-68
2022/06/26 08:20:00;;;;;;;;;;;20.00;99.90;;;;;;4984449;28;19933;-65
2022/06/26 08:22:28;;;;;;;;;;;19.90;99.90;;;;;;4983741;28;19926;-64
2022/06/26 08:24:55;;;;;;;;;;;20.10;99.90;;;;;;5001392;28;19933;-64
2022/06/26 08:27:22;;;;;;;;;;;20.10;99.90;;;;;;5002095;28;19926;-65
2022/06/26 08:29:49;;;;;;;;;;;20.20;99.90;;;;;;4997813;28;19934;-64
2022/06/26 08:32:15;;;;;;;;;;;20.00;99.90;;;;;;5007248;28;19929;-65
2022/06/26 08:34:42;;;;;;;;;;;20.10;99.90;;;;;;4999776;28;19929;-69
2022/06/26 08:37:09;;;;;;;;;;;20.20;99.90;;;;;;5007565;28;19930;-64
2022/06/26 08:39:38;;;;;;;;;;;20.00;99.90;;;;;;5001693;28;19929;-65
2022/06/26 08:42:05;;;;;;;;;;;20.20;99.90;;;;;;4996444;28;19965;-65
2022/06/26 08:44:33;;;;;;;;;;;20.40;99.90;;;;;;5005952;28;19932;-65
2022/06/26 08:46:59;;;;;;;;;;;20.20;99.90;;;;;;5006690;28;19926;-66
2022/06/26 08:49:26;;;;;;;;;;;20.30;99.90;;;;;;4990432;28;19926;-66
2022/06/26 08:51:53;;;;;;;;;;;20.70;99.90;;;;;;5000009;28;19925;-66
2022/06/26 08:54:20;;;;;;;;;;;20.90;99.90;;;;;;4986404;28;19933;-65
2022/06/26 08:56:49;;;;;;;;;;;20.90;99.90;;;;;;4983865;28;19937;-66
2022/06/26 08:59:17;;;;;;;;;;;20.80;99.90;;;;;;4995819;28;20282;-66
2022/06/26 09:01:44;;;;;;;;;;;20.60;99.90;;;;;;5003717;28;19926;-66
2022/06/26 09:04:12;;;;;;;;;;;20.40;99.90;;;;;;4990360;28;19927;-66
2022/06/26 09:06:41;;;;;;;;;;;20.10;99.90;;;;;;5007724;28;19973;-66
2022/06/26 09:09:13;;;;;;;;;;;20.10;99.90;;;;;;4997345;28;19969;-66
2022/06/26 09:11:40;;;;;;;;;;;20.50;99.90;;;;;;5016790;28;20420;-66
2022/06/26 09:14:08;;;;;;;;;;;20.70;99.90;;;;;;4984213;28;19926;-66
2022/06/26 09:16:38;;;;;;;;;;;21.00;99.90;;;;;;5012512;28;19965;-66
2022/06/26 09:19:08;;;;;;;;;;;20.90;99.90;;;;;;4999427;28;19941;-66
2022/06/26 09:21:35;;;;;;;;;;;20.90;99.90;;;;;;4993127;28;19934;-67
2022/06/26 09:24:02;;;;;;;;;;;21.00;99.90;;;;;;4976724;28;19932;-67
2022/06/26 09:26:28;;;;;;;;;;;21.20;99.90;;;;;;4985721;28;20000;-66
2022/06/26 09:28:55;;;;;;;;;;;20.80;99.90;;;;;;5002794;28;19930;-66
2022/06/26 09:31:23;;;;;;;;;;;20.50;99.90;;;;;;5000255;28;19926;-66
2022/06/26 09:33:50;;;;;;;;;;;20.60;99.90;;;;;;4980123;28;19989;-66
2022/06/26 09:36:18;;;;;;;;;;;20.90;99.90;;;;;;4988641;28;20414;-66
2022/06/26 09:38:48;;;;;;;;;;;20.70;99.90;;;;;;4994487;28;20005;-66
2022/06/26 09:41:15;;;;;;;;;;;20.60;99.90;;;;;;4999525;28;19932;-66
2022/06/26 09:43:42;;;;;;;;;;;20.40;99.90;;;;;;5008447;28;19926;-67
2022/06/26 09:46:10;;;;;;;;;;;20.50;99.90;;;;;;5006546;28;19929;-65
2022/06/26 09:48:40;;;;;;;;;;;20.40;99.90;;;;;;4989774;28;19926;-65
2022/06/26 09:51:08;;;;;;;;;;;20.60;99.90;;;;;;5004867;28;19933;-66
2022/06/26 09:53:36;;;;;;;;;;;20.90;99.90;;;;;;5008232;28;20286;-66
2022/06/26 09:56:03;;;;;;;;;;;21.10;99.90;;;;;;4987208;28;19929;-65
2022/06/26 09:58:30;;;;;;;;;;;21.10;99.90;;;;;;5010040;28;19941;-66
2022/06/26 10:06:28;;;;;;;;;;;20.70;99.90;;;;;;5008967;28;19934;-66
2022/06/26 10:08:55;;;;;;;;;;;20.70;99.90;;;;;;4986883;28;20413;-66
2022/06/26 10:11:23;;;;;;;;;;;20.80;99.90;;;;;;4999710;28;20020;-65
2022/06/26 10:13:50;;;;;;;;;;;20.60;99.90;;;;;;4999547;28;19925;-65
2022/06/26 10:16:23;;;;;;;;;;;20.80;99.90;;;;;;4998457;28;19930;-65
2022/06/26 10:18:59;;;;;;;;;;;20.80;99.90;;;;;;5001714;28;20077;-64
2022/06/26 10:21:26;;;;;;;;;;;20.90;99.90;;;;;;4999501;28;19926;-64
2022/06/26 10:24:01;;;;;;;;;;;20.80;99.90;;;;;;5007934;28;19926;-65
2022/06/26 10:26:28;;;;;;;;;;;20.70;99.90;;;;;;4992883;28;19932;-71
2022/06/26 10:28:56;;;;;;;;;;;20.70;99.90;;;;;;4991113;28;19925;-66
2022/06/26 10:31:23;;;;;;;;;;;20.60;99.90;;;;;;4982332;28;20016;-66
2022/06/26 10:33:50;;;;;;;;;;;20.50;99.90;;;;;;4999883;28;19934;-66
2022/06/26 10:36:22;;;;;;;;;;;20.30;99.90;;;;;;5004215;28;19925;-66
2022/06/26 10:38:49;;;;;;;;;;;20.20;99.90;;;;;;4996394;28;20028;-67
2022/06/26 10:44:02;;;;;;;;;;;20.20;99.90;;;;;;4987400;28;20016;-65
2022/06/26 10:46:35;;;;;;;;;;;20.20;99.90;;;;;;5005299;28;19987;-65
2022/06/26 10:49:05;;;;;;;;;;;20.60;99.90;;;;;;4986504;28;19938;-66
2022/06/26 10:51:33;;;;;;;;;;;20.70;99.90;;;;;;4981762;28;19977;-65
2022/06/26 10:54:02;;;;;;;;;;;20.80;99.90;;;;;;4984571;28;19926;-65
2022/06/26 10:56:28;;;;;;;;;;;20.60;99.90;;;;;;5003989;28;19941;-65
2022/06/26 10:58:59;;;;;;;;;;;20.30;99.90;;;;;;4993235;28;19926;-64
2022/06/26 11:01:26;;;;;;;;;;;19.90;99.90;;;;;;5002868;28;19929;-65
2022/06/26 11:03:53;;;;;;;;;;;19.50;99.90;;;;;;4996055;28;19925;-66
2022/06/26 11:06:20;;;;;;;;;;;19.40;99.90;;;;;;4998087;28;19926;-65
2022/06/26 11:08:49;;;;;;;;;;;19.40;99.90;;;;;;4998035;28;20024;-67
2022/06/26 11:11:17;;;;;;;;;;;19.40;99.90;;;;;;4998719;28;19930;-71
2022/06/26 11:13:48;;;;;;;;;;;19.60;99.90;;;;;;5000229;28;19925;-65
2022/06/26 11:16:15;;;;;;;;;;;19.70;99.90;;;;;;4985486;28;19933;-65
2022/06/26 11:18:42;;;;;;;;;;;20.00;99.90;;;;;;4978361;28;19930;-65
2022/06/26 11:21:09;;;;;;;;;;;20.20;99.90;;;;;;5004550;28;19930;-64
2022/06/26 11:23:36;;;;;;;;;;;20.40;99.90;;;;;;4986168;28;19941;-65
2022/06/26 11:26:05;;;;;;;;;;;20.70;99.90;;;;;;4991947;28;19941;-64
2022/06/26 11:28:33;;;;;;;;;;;20.80;99.90;;;;;;4986991;28;19926;-64
2022/06/26 11:31:00;;;;;;;;;;;20.90;99.90;;;;;;4996006;28;19926;-64
2022/06/26 11:33:28;;;;;;;;;;;21.10;99.90;;;;;;4981961;28;19926;-63
2022/06/26 11:35:55;;;;;;;;;;;21.30;99.90;;;;;;4997606;28;20353;-65
2022/06/26 11:38:22;;;;;;;;;;;21.70;99.90;;;;;;5005642;28;19930;-68
2022/06/26 11:40:50;;;;;;;;;;;22.00;99.90;;;;;;5006044;28;19930;-68
2022/06/26 11:43:19;;;;;;;;;;;22.50;99.90;;;;;;5004691;28;19925;-69
2022/06/26 11:45:46;;;;;;;;;;;22.60;99.90;;;;;;5000184;28;19965;-69
2022/06/26 11:48:16;;;;;;;;;;;22.40;99.90;;;;;;5001215;28;20382;-69
2022/06/26 11:50:43;;;;;;;;;;;22.30;99.90;;;;;;4988824;28;19926;-70
2022/06/26 11:53:10;;;;;;;;;;;22.00;99.90;;;;;;5007467;28;19926;-68
2022/06/26 11:55:45;;;;;;;;;;;21.80;99.90;;;;;;5009000;28;19926;-68
2022/06/26 11:58:12;;;;;;;;;;;21.50;99.90;;;;;;4987624;28;19956;-69
2022/06/26 12:00:40;;;;;;;;;;;21.30;99.90;;;;;;4997895;28;19977;-68
2022/06/26 12:03:07;;;;;;;;;;;21.20;99.90;;;;;;4996630;28;19960;-64
2022/06/26 12:05:33;;;;;;;;;;;21.00;99.90;;;;;;4998016;28;19925;-64
2022/06/26 12:08:00;;;;;;;;;;;20.80;99.90;;;;;;4989629;28;19926;-64
2022/06/26 12:10:28;;;;;;;;;;;20.80;99.90;;;;;;5007209;28;20460;-64
2022/06/26 12:12:55;;;;;;;;;;;20.90;99.90;;;;;;5006947;28;19925;-64
2022/06/26 12:15:23;;;;;;;;;;;20.90;99.90;;;;;;5016696;28;19929;-64
2022/06/26 12:17:56;;;;;;;;;;;20.80;99.90;;;;;;5007780;28;19934;-64
2022/06/26 12:20:23;;;;;;;;;;;20.70;99.90;;;;;;5007762;28;19945;-64
2022/06/26 12:22:51;;;;;;;;;;;20.70;99.90;;;;;;4975909;28;19926;-65
2022/06/26 12:25:28;;;;;;;;;;;20.70;99.90;;;;;;5008577;28;19929;-64
2022/06/26 12:27:55;;;;;;;;;;;20.50;99.90;;;;;;4986177;28;19926;-66
2022/06/26 12:30:23;;;;;;;;;;;20.50;99.90;;;;;;5015835;28;19926;-64
2022/06/26 12:32:50;;;;;;;;;;;20.40;99.90;;;;;;5015300;28;19925;-64
2022/06/26 12:35:18;;;;;;;;;;;20.50;99.90;;;;;;5007908;28;19926;-64
2022/06/26 12:37:45;;;;;;;;;;;20.50;99.90;;;;;;4989586;28;19926;-64
2022/06/26 12:40:12;;;;;;;;;;;20.70;99.90;;;;;;4988704;28;19925;-64
2022/06/26 12:42:39;;;;;;;;;;;20.70;99.90;;;;;;4990737;28;19926;-64
2022/06/26 12:45:07;;;;;;;;;;;20.80;99.90;;;;;;5000501;28;19972;-72
2022/06/26 12:47:34;;;;;;;;;;;21.00;99.90;;;;;;5005806;28;19930;-66
2022/06/26 12:50:00;;;;;;;;;;;21.00;99.90;;;;;;5001950;28;19926;-69
2022/06/26 12:52:29;;;;;;;;;;;21.20;99.90;;;;;;4985718;28;19926;-70
2022/06/26 12:54:55;;;;;;;;;;;21.50;99.90;;;;;;4994367;28;19930;-74
2022/06/26 12:57:22;;;;;;;;;;;21.90;99.90;;;;;;4984567;28;19927;-65
2022/06/26 12:59:49;;;;;;;;;;;22.20;99.90;;;;;;5007976;28;19945;-65
2022/06/26 13:02:16;;;;;;;;;;;22.50;99.90;;;;;;4997300;28;19926;-65
2022/06/26 13:04:43;;;;;;;;;;;22.60;99.90;;;;;;4990476;28;19957;-65
2022/06/26 13:07:10;;;;;;;;;;;22.70;99.90;;;;;;5000402;28;20278;-65
2022/06/26 13:09:38;;;;;;;;;;;22.80;99.90;;;;;;4994501;28;19930;-65
2022/06/26 13:12:05;;;;;;;;;;;22.90;99.90;;;;;;4997207;28;19953;-65
2022/06/26 13:14:33;;;;;;;;;;;23.00;99.90;;;;;;4983435;28;19926;-65
2022/06/26 13:17:00;;;;;;;;;;;22.80;99.90;;;;;;5004746;28;20309;-65
2022/06/26 13:19:26;;;;;;;;;;;22.90;99.90;;;;;;5007988;28;19926;-65
2022/06/26 13:21:53;;;;;;;;;;;23.00;99.90;;;;;;4984551;28;19930;-64
2022/06/26 13:24:20;;;;;;;;;;;23.00;99.90;;;;;;5005618;28;20361;-65
2022/06/26 13:26:49;;;;;;;;;;;23.00;99.90;;;;;;4995174;28;19925;-66
2022/06/26 13:29:16;;;;;;;;;;;23.00;99.90;;;;;;4995150;28;20466;-65
2022/06/26 13:31:43;;;;;;;;;;;23.00;99.90;;;;;;4996049;28;19930;-66
2022/06/26 13:34:10;;;;;;;;;;;22.90;99.90;;;;;;4987561;28;19929;-65
2022/06/26 13:36:37;;;;;;;;;;;22.80;99.90;;;;;;4993575;28;19954;-64
2022/06/26 13:39:04;;;;;;;;;;;22.80;99.90;;;;;;4981896;28;19929;-66
2022/06/26 13:41:31;;;;;;;;;;;22.90;99.90;;;;;;4991363;28;19926;-70
2022/06/26 13:43:59;;;;;;;;;;;22.80;99.90;;;;;;5003359;28;20713;-71
2022/06/26 13:46:26;;;;;;;;;;;22.70;99.90;;;;;;4988914;28;20266;-65
2022/06/26 13:48:53;;;;;;;;;;;22.70;99.90;;;;;;4994391;28;19933;-66
2022/06/26 13:51:20;;;;;;;;;;;22.40;99.90;;;;;;4988504;28;19925;-65
2022/06/26 13:53:47;;;;;;;;;;;22.20;99.90;;;;;;4985929;28;19930;-66
2022/06/26 13:56:16;;;;;;;;;;;22.00;99.90;;;;;;5007251;28;20008;-65
2022/06/26 13:58:43;;;;;;;;;;;21.90;99.90;;;;;;4999108;28;20312;-65
2022/06/26 14:01:11;;;;;;;;;;;21.80;99.90;;;;;;4995588;28;19934;-64
2022/06/26 14:03:38;;;;;;;;;;;21.80;99.90;;;;;;4991253;28;19933;-65
2022/06/26 14:06:05;;;;;;;;;;;21.80;99.90;;;;;;4989047;28;19937;-65
2022/06/26 14:08:32;;;;;;;;;;;21.80;99.90;;;;;;4991866;28;19926;-64
2022/06/26 14:10:58;;;;;;;;;;;21.70;99.90;;;;;;5004002;28;19926;-65
2022/06/26 14:13:25;;;;;;;;;;;21.50;99.90;;;;;;4987104;28;20389;-64
2022/06/26 14:15:52;;;;;;;;;;;21.30;99.90;;;;;;4995127;28;19925;-65
2022/06/26 14:18:20;;;;;;;;;;;21.30;99.90;;;;;;5004780;28;20397;-65
2022/06/26 14:20:47;;;;;;;;;;;21.40;99.90;;;;;;4996818;28;19926;-65
2022/06/26 14:26:16;;;;;;;;;;;21.60;99.90;;;;;;4954307;28;19923;-66
2022/06/26 14:28:43;;;;;;;;;;;21.50;99.90;;;;;;4942638;28;19927;-65
2022/06/26 14:31:10;;;;;;;;;;;21.30;99.90;;;;;;4967912;28;20349;-65
2022/06/26 14:33:39;;;;;;;;;;;21.20;99.90;;;;;;4986914;28;19926;-65
2022/06/26 14:36:06;;;;;;;;;;;21.10;99.90;;;;;;4989576;28;19930;-65